sensor_id;sensor_type;location;lat;lon;timestamp;P1;durP1;ratioP1;P2;durP2;ratioP2
79728;SDS011;69218;52.132;5.418;2023-05-07T00:01:13;8.00;;;5.07;;
79728;SDS011;69218;52.132;5.418;2023-05-07T00:03:40;7.20;;;4.20;;
79728;SDS011;69218;52.132;5.418;2023-05-07T00:06:07;8.68;;;5.63;;
79728;SDS011;69218;52.132;5.418;2023-05-07T00:08:33;5.55;;;3.88;;
79728;SDS011;69218;52.132;5.418;2023-05-07T00:11:00;5.57;;;3.92;;
79728;SDS011;69218;52.132;5.418;2023-05-07T00:13:26;6.80;;;4.80;;
79728;SDS011;69218;52.132;5.418;2023-05-07T00:15:53;7.38;;;4.68;;
79728;SDS011;69218;52.132;5.418;2023-05-07T00:18:20;6.35;;;4.20;;
79728;SDS011;69218;52.132;5.418;2023-05-07T00:20:48;6.78;;;4.97;;
79728;SDS011;69218;52.132;5.418;2023-05-07T00:23:15;7.40;;;4.55;;
79728;SDS011;69218;52.132;5.418;2023-05-07T00:25:41;5.68;;;4.13;;
79728;SDS011;69218;52.132;5.418;2023-05-07T00:28:08;7.25;;;5.30;;
79728;SDS011;69218;52.132;5.418;2023-05-07T00:30:34;7.80;;;4.75;;
79728;SDS011;69218;52.132;5.418;2023-05-07T00:33:01;6.15;;;4.43;;
79728;SDS011;69218;52.132;5.418;2023-05-07T00:35:28;8.07;;;4.80;;
79728;SDS011;69218;52.132;5.418;2023-05-07T00:37:55;8.07;;;5.32;;
79728;SDS011;69218;52.132;5.418;2023-05-07T00:40:22;7.40;;;5.00;;
79728;SDS011;69218;52.132;5.418;2023-05-07T00:42:48;7.38;;;4.68;;
79728;SDS011;69218;52.132;5.418;2023-05-07T00:45:15;7.38;;;5.55;;
79728;SDS011;69218;52.132;5.418;2023-05-07T00:47:43;7.22;;;5.00;;
79728;SDS011;69218;52.132;5.418;2023-05-07T00:50:09;8.52;;;5.35;;
79728;SDS011;69218;52.132;5.418;2023-05-07T00:52:39;7.25;;;4.35;;
79728;SDS011;69218;52.132;5.418;2023-05-07T00:55:05;5.88;;;4.13;;
79728;SDS011;69218;52.132;5.418;2023-05-07T00:57:36;6.47;;;4.38;;
79728;SDS011;69218;52.132;5.418;2023-05-07T01:00:04;6.85;;;4.75;;
79728;SDS011;69218;52.132;5.418;2023-05-07T01:02:31;7.40;;;4.75;;
79728;SDS011;69218;52.132;5.418;2023-05-07T01:04:58;6.63;;;4.35;;
79728;SDS011;69218;52.132;5.418;2023-05-07T01:07:26;10.68;;;5.38;;
79728;SDS011;69218;52.132;5.418;2023-05-07T01:09:53;10.00;;;4.85;;
79728;SDS011;69218;52.132;5.418;2023-05-07T01:12:20;5.45;;;3.83;;
79728;SDS011;69218;52.132;5.418;2023-05-07T01:14:47;5.35;;;3.92;;
79728;SDS011;69218;52.132;5.418;2023-05-07T01:17:16;6.15;;;4.65;;
79728;SDS011;69218;52.132;5.418;2023-05-07T01:19:43;7.22;;;4.43;;
79728;SDS011;69218;52.132;5.418;2023-05-07T01:22:10;6.53;;;5.22;;
79728;SDS011;69218;52.132;5.418;2023-05-07T01:24:37;9.20;;;5.63;;
79728;SDS011;69218;52.132;5.418;2023-05-07T01:27:04;7.07;;;4.30;;
79728;SDS011;69218;52.132;5.418;2023-05-07T01:29:31;5.80;;;3.55;;
79728;SDS011;69218;52.132;5.418;2023-05-07T01:31:58;8.57;;;5.80;;
79728;SDS011;69218;52.132;5.418;2023-05-07T01:34:27;5.90;;;4.45;;
79728;SDS011;69218;52.132;5.418;2023-05-07T01:36:55;10.15;;;5.95;;
79728;SDS011;69218;52.132;5.418;2023-05-07T01:39:24;6.50;;;4.20;;
79728;SDS011;69218;52.132;5.418;2023-05-07T01:44:22;5.53;;;3.17;;
79728;SDS011;69218;52.132;5.418;2023-05-07T01:46:49;6.65;;;4.47;;
79728;SDS011;69218;52.132;5.418;2023-05-07T01:49:16;8.75;;;5.68;;
79728;SDS011;69218;52.132;5.418;2023-05-07T01:51:44;5.82;;;3.90;;
79728;SDS011;69218;52.132;5.418;2023-05-07T01:54:10;6.80;;;4.13;;
79728;SDS011;69218;52.132;5.418;2023-05-07T01:56:37;4.88;;;3.85;;
79728;SDS011;69218;52.132;5.418;2023-05-07T01:59:04;7.10;;;4.25;;
79728;SDS011;69218;52.132;5.418;2023-05-07T02:01:31;7.97;;;5.32;;
79728;SDS011;69218;52.132;5.418;2023-05-07T02:03:58;7.90;;;5.28;;
79728;SDS011;69218;52.132;5.418;2023-05-07T02:06:24;7.32;;;5.47;;
79728;SDS011;69218;52.132;5.418;2023-05-07T02:08:51;7.95;;;5.32;;
79728;SDS011;69218;52.132;5.418;2023-05-07T02:11:17;7.75;;;5.35;;
79728;SDS011;69218;52.132;5.418;2023-05-07T02:13:44;7.88;;;5.55;;
79728;SDS011;69218;52.132;5.418;2023-05-07T02:16:11;7.30;;;4.80;;
79728;SDS011;69218;52.132;5.418;2023-05-07T02:18:37;8.77;;;6.45;;
79728;SDS011;69218;52.132;5.418;2023-05-07T02:21:04;7.85;;;5.78;;
79728;SDS011;69218;52.132;5.418;2023-05-07T02:23:30;8.90;;;5.57;;
79728;SDS011;69218;52.132;5.418;2023-05-07T02:25:57;8.13;;;4.40;;
79728;SDS011;69218;52.132;5.418;2023-05-07T02:28:23;4.75;;;3.33;;
79728;SDS011;69218;52.132;5.418;2023-05-07T02:30:50;6.57;;;4.43;;
79728;SDS011;69218;52.132;5.418;2023-05-07T02:33:16;5.13;;;3.63;;
79728;SDS011;69218;52.132;5.418;2023-05-07T02:35:43;8.02;;;5.30;;
79728;SDS011;69218;52.132;5.418;2023-05-07T02:38:09;8.95;;;5.43;;
79728;SDS011;69218;52.132;5.418;2023-05-07T02:40:36;6.35;;;4.00;;
79728;SDS011;69218;52.132;5.418;2023-05-07T02:43:05;8.07;;;5.55;;
79728;SDS011;69218;52.132;5.418;2023-05-07T02:45:32;7.32;;;4.93;;
79728;SDS011;69218;52.132;5.418;2023-05-07T02:47:59;5.47;;;4.50;;
79728;SDS011;69218;52.132;5.418;2023-05-07T02:50:26;9.38;;;6.15;;
79728;SDS011;69218;52.132;5.418;2023-05-07T02:52:53;6.32;;;4.38;;
79728;SDS011;69218;52.132;5.418;2023-05-07T02:55:19;8.30;;;5.93;;
79728;SDS011;69218;52.132;5.418;2023-05-07T02:57:46;7.53;;;5.20;;
79728;SDS011;69218;52.132;5.418;2023-05-07T03:00:13;7.28;;;5.60;;
79728;SDS011;69218;52.132;5.418;2023-05-07T03:05:08;8.90;;;6.03;;
79728;SDS011;69218;52.132;5.418;2023-05-07T03:07:35;7.88;;;5.90;;
79728;SDS011;69218;52.132;5.418;2023-05-07T03:10:02;7.10;;;4.63;;
79728;SDS011;69218;52.132;5.418;2023-05-07T03:12:29;7.47;;;5.70;;
79728;SDS011;69218;52.132;5.418;2023-05-07T03:14:56;10.38;;;6.38;;
79728;SDS011;69218;52.132;5.418;2023-05-07T03:17:23;9.05;;;6.25;;
79728;SDS011;69218;52.132;5.418;2023-05-07T03:19:49;8.82;;;5.05;;
79728;SDS011;69218;52.132;5.418;2023-05-07T03:22:16;9.57;;;6.57;;
79728;SDS011;69218;52.132;5.418;2023-05-07T03:24:42;9.00;;;5.95;;
79728;SDS011;69218;52.132;5.418;2023-05-07T03:27:09;7.75;;;5.47;;
79728;SDS011;69218;52.132;5.418;2023-05-07T03:29:35;7.10;;;4.88;;
79728;SDS011;69218;52.132;5.418;2023-05-07T03:32:02;9.73;;;6.47;;
79728;SDS011;69218;52.132;5.418;2023-05-07T03:34:28;10.52;;;6.82;;
79728;SDS011;69218;52.132;5.418;2023-05-07T03:36:55;11.05;;;6.90;;
79728;SDS011;69218;52.132;5.418;2023-05-07T03:39:22;9.20;;;5.47;;
79728;SDS011;69218;52.132;5.418;2023-05-07T03:41:48;9.65;;;7.00;;
79728;SDS011;69218;52.132;5.418;2023-05-07T03:44:14;8.10;;;5.57;;
79728;SDS011;69218;52.132;5.418;2023-05-07T03:46:41;9.38;;;6.50;;
79728;SDS011;69218;52.132;5.418;2023-05-07T03:49:07;9.35;;;6.18;;
79728;SDS011;69218;52.132;5.418;2023-05-07T03:51:34;10.32;;;6.70;;
79728;SDS011;69218;52.132;5.418;2023-05-07T03:54:02;8.25;;;5.90;;
79728;SDS011;69218;52.132;5.418;2023-05-07T03:56:28;9.23;;;5.82;;
79728;SDS011;69218;52.132;5.418;2023-05-07T03:58:55;9.85;;;6.38;;
79728;SDS011;69218;52.132;5.418;2023-05-07T04:01:22;8.95;;;6.00;;
79728;SDS011;69218;52.132;5.418;2023-05-07T04:03:48;9.73;;;6.65;;
79728;SDS011;69218;52.132;5.418;2023-05-07T04:06:16;11.02;;;6.45;;
79728;SDS011;69218;52.132;5.418;2023-05-07T04:08:46;11.23;;;7.50;;
79728;SDS011;69218;52.132;5.418;2023-05-07T04:11:13;8.18;;;5.70;;
79728;SDS011;69218;52.132;5.418;2023-05-07T04:13:39;10.55;;;6.97;;
79728;SDS011;69218;52.132;5.418;2023-05-07T04:16:06;8.65;;;6.28;;
79728;SDS011;69218;52.132;5.418;2023-05-07T04:18:32;10.23;;;7.13;;
79728;SDS011;69218;52.132;5.418;2023-05-07T04:20:59;9.55;;;6.72;;
79728;SDS011;69218;52.132;5.418;2023-05-07T04:23:25;9.95;;;7.30;;
79728;SDS011;69218;52.132;5.418;2023-05-07T04:25:52;11.48;;;6.68;;
79728;SDS011;69218;52.132;5.418;2023-05-07T04:28:18;10.88;;;6.97;;
79728;SDS011;69218;52.132;5.418;2023-05-07T04:30:45;10.55;;;6.88;;
79728;SDS011;69218;52.132;5.418;2023-05-07T04:33:11;10.07;;;6.68;;
79728;SDS011;69218;52.132;5.418;2023-05-07T04:35:40;10.30;;;6.93;;
79728;SDS011;69218;52.132;5.418;2023-05-07T04:38:06;9.73;;;6.32;;
79728;SDS011;69218;52.132;5.418;2023-05-07T04:40:32;10.15;;;7.50;;
79728;SDS011;69218;52.132;5.418;2023-05-07T04:43:01;9.68;;;6.40;;
79728;SDS011;69218;52.132;5.418;2023-05-07T04:45:27;11.50;;;6.57;;
79728;SDS011;69218;52.132;5.418;2023-05-07T04:47:54;10.65;;;7.47;;
79728;SDS011;69218;52.132;5.418;2023-05-07T04:50:20;11.15;;;7.18;;
79728;SDS011;69218;52.132;5.418;2023-05-07T04:52:49;11.98;;;7.50;;
79728;SDS011;69218;52.132;5.418;2023-05-07T04:55:16;12.75;;;7.60;;
79728;SDS011;69218;52.132;5.418;2023-05-07T04:57:42;12.30;;;8.27;;
79728;SDS011;69218;52.132;5.418;2023-05-07T05:00:09;11.18;;;7.32;;
79728;SDS011;69218;52.132;5.418;2023-05-07T05:02:36;11.57;;;7.45;;
79728;SDS011;69218;52.132;5.418;2023-05-07T05:05:03;9.75;;;6.53;;
79728;SDS011;69218;52.132;5.418;2023-05-07T05:07:30;9.32;;;6.80;;
79728;SDS011;69218;52.132;5.418;2023-05-07T05:09:56;14.00;;;7.88;;
79728;SDS011;69218;52.132;5.418;2023-05-07T05:12:23;9.85;;;6.30;;
79728;SDS011;69218;52.132;5.418;2023-05-07T05:14:50;10.73;;;6.95;;
79728;SDS011;69218;52.132;5.418;2023-05-07T05:17:16;12.25;;;7.47;;
79728;SDS011;69218;52.132;5.418;2023-05-07T05:19:43;12.57;;;7.85;;
79728;SDS011;69218;52.132;5.418;2023-05-07T05:22:09;10.90;;;7.68;;
79728;SDS011;69218;52.132;5.418;2023-05-07T05:24:36;11.50;;;7.28;;
79728;SDS011;69218;52.132;5.418;2023-05-07T05:27:02;11.07;;;7.68;;
79728;SDS011;69218;52.132;5.418;2023-05-07T05:29:29;12.05;;;7.93;;
79728;SDS011;69218;52.132;5.418;2023-05-07T05:31:57;11.48;;;7.53;;
79728;SDS011;69218;52.132;5.418;2023-05-07T05:34:24;10.05;;;7.05;;
79728;SDS011;69218;52.132;5.418;2023-05-07T05:36:50;12.57;;;7.65;;
79728;SDS011;69218;52.132;5.418;2023-05-07T05:39:17;13.07;;;7.78;;
79728;SDS011;69218;52.132;5.418;2023-05-07T05:41:43;10.63;;;7.40;;
79728;SDS011;69218;52.132;5.418;2023-05-07T05:44:10;11.52;;;7.25;;
79728;SDS011;69218;52.132;5.418;2023-05-07T05:46:36;10.68;;;6.97;;
79728;SDS011;69218;52.132;5.418;2023-05-07T05:49:03;12.98;;;8.52;;
79728;SDS011;69218;52.132;5.418;2023-05-07T05:51:29;15.82;;;7.90;;
79728;SDS011;69218;52.132;5.418;2023-05-07T05:53:56;12.63;;;8.20;;
79728;SDS011;69218;52.132;5.418;2023-05-07T05:56:23;12.95;;;8.38;;
79728;SDS011;69218;52.132;5.418;2023-05-07T05:58:49;13.85;;;8.30;;
79728;SDS011;69218;52.132;5.418;2023-05-07T06:01:19;13.30;;;8.32;;
79728;SDS011;69218;52.132;5.418;2023-05-07T06:03:45;14.23;;;8.73;;
79728;SDS011;69218;52.132;5.418;2023-05-07T06:06:12;12.77;;;8.40;;
79728;SDS011;69218;52.132;5.418;2023-05-07T06:08:40;14.35;;;8.80;;
79728;SDS011;69218;52.132;5.418;2023-05-07T06:11:07;13.88;;;8.38;;
79728;SDS011;69218;52.132;5.418;2023-05-07T06:13:33;14.02;;;8.98;;
79728;SDS011;69218;52.132;5.418;2023-05-07T06:16:00;13.95;;;8.85;;
79728;SDS011;69218;52.132;5.418;2023-05-07T06:18:26;14.27;;;8.95;;
79728;SDS011;69218;52.132;5.418;2023-05-07T06:20:53;13.07;;;8.68;;
79728;SDS011;69218;52.132;5.418;2023-05-07T06:23:19;14.10;;;9.02;;
79728;SDS011;69218;52.132;5.418;2023-05-07T06:25:49;9.88;;;7.45;;
79728;SDS011;69218;52.132;5.418;2023-05-07T06:28:16;13.25;;;8.35;;
79728;SDS011;69218;52.132;5.418;2023-05-07T06:30:43;13.65;;;9.05;;
79728;SDS011;69218;52.132;5.418;2023-05-07T06:33:10;12.60;;;8.88;;
79728;SDS011;69218;52.132;5.418;2023-05-07T06:35:36;15.70;;;9.27;;
79728;SDS011;69218;52.132;5.418;2023-05-07T06:38:03;12.80;;;8.88;;
79728;SDS011;69218;52.132;5.418;2023-05-07T06:40:30;12.20;;;8.55;;
79728;SDS011;69218;52.132;5.418;2023-05-07T06:42:56;14.65;;;9.18;;
79728;SDS011;69218;52.132;5.418;2023-05-07T06:45:23;13.32;;;8.52;;
79728;SDS011;69218;52.132;5.418;2023-05-07T06:47:51;15.25;;;9.80;;
79728;SDS011;69218;52.132;5.418;2023-05-07T06:50:17;15.38;;;8.85;;
79728;SDS011;69218;52.132;5.418;2023-05-07T06:52:44;14.27;;;8.32;;
79728;SDS011;69218;52.132;5.418;2023-05-07T06:55:10;15.40;;;9.82;;
79728;SDS011;69218;52.132;5.418;2023-05-07T06:57:37;15.32;;;8.88;;
79728;SDS011;69218;52.132;5.418;2023-05-07T07:00:07;14.57;;;9.48;;
79728;SDS011;69218;52.132;5.418;2023-05-07T07:02:39;16.25;;;9.50;;
79728;SDS011;69218;52.132;5.418;2023-05-07T07:05:05;15.05;;;8.93;;
79728;SDS011;69218;52.132;5.418;2023-05-07T07:07:33;13.65;;;8.70;;
79728;SDS011;69218;52.132;5.418;2023-05-07T07:09:59;16.85;;;9.60;;
79728;SDS011;69218;52.132;5.418;2023-05-07T07:12:26;15.48;;;9.20;;
79728;SDS011;69218;52.132;5.418;2023-05-07T07:14:52;14.65;;;9.40;;
79728;SDS011;69218;52.132;5.418;2023-05-07T07:17:20;17.45;;;10.02;;
79728;SDS011;69218;52.132;5.418;2023-05-07T07:19:46;15.00;;;9.70;;
79728;SDS011;69218;52.132;5.418;2023-05-07T07:22:13;16.35;;;9.60;;
79728;SDS011;69218;52.132;5.418;2023-05-07T07:24:39;15.63;;;9.13;;
79728;SDS011;69218;52.132;5.418;2023-05-07T07:27:06;19.80;;;10.07;;
79728;SDS011;69218;52.132;5.418;2023-05-07T07:29:32;15.50;;;9.43;;
79728;SDS011;69218;52.132;5.418;2023-05-07T07:31:59;14.27;;;9.23;;
79728;SDS011;69218;52.132;5.418;2023-05-07T07:34:26;14.63;;;9.65;;
79728;SDS011;69218;52.132;5.418;2023-05-07T07:36:52;14.43;;;8.52;;
79728;SDS011;69218;52.132;5.418;2023-05-07T07:39:19;16.23;;;9.48;;
79728;SDS011;69218;52.132;5.418;2023-05-07T07:41:45;14.25;;;8.85;;
79728;SDS011;69218;52.132;5.418;2023-05-07T07:44:12;14.73;;;8.75;;
79728;SDS011;69218;52.132;5.418;2023-05-07T07:46:41;13.68;;;9.07;;
79728;SDS011;69218;52.132;5.418;2023-05-07T07:49:08;15.23;;;9.15;;
79728;SDS011;69218;52.132;5.418;2023-05-07T07:51:34;14.82;;;9.60;;
79728;SDS011;69218;52.132;5.418;2023-05-07T07:54:01;13.60;;;9.07;;
79728;SDS011;69218;52.132;5.418;2023-05-07T07:56:28;14.38;;;9.50;;
79728;SDS011;69218;52.132;5.418;2023-05-07T07:58:55;15.45;;;9.73;;
79728;SDS011;69218;52.132;5.418;2023-05-07T08:01:21;13.85;;;9.15;;
79728;SDS011;69218;52.132;5.418;2023-05-07T08:03:48;15.13;;;10.13;;
79728;SDS011;69218;52.132;5.418;2023-05-07T08:06:15;15.13;;;10.00;;
79728;SDS011;69218;52.132;5.418;2023-05-07T08:08:42;15.48;;;9.90;;
79728;SDS011;69218;52.132;5.418;2023-05-07T08:11:09;13.43;;;9.55;;
79728;SDS011;69218;52.132;5.418;2023-05-07T08:13:36;15.07;;;9.90;;
79728;SDS011;69218;52.132;5.418;2023-05-07T08:16:04;15.50;;;10.13;;
79728;SDS011;69218;52.132;5.418;2023-05-07T08:18:31;13.48;;;9.07;;
79728;SDS011;69218;52.132;5.418;2023-05-07T08:20:57;16.77;;;10.27;;
79728;SDS011;69218;52.132;5.418;2023-05-07T08:23:23;14.27;;;9.70;;
79728;SDS011;69218;52.132;5.418;2023-05-07T08:25:50;15.23;;;9.63;;
79728;SDS011;69218;52.132;5.418;2023-05-07T08:28:17;16.55;;;10.68;;
79728;SDS011;69218;52.132;5.418;2023-05-07T08:30:43;16.70;;;10.68;;
79728;SDS011;69218;52.132;5.418;2023-05-07T08:33:10;16.08;;;10.27;;
79728;SDS011;69218;52.132;5.418;2023-05-07T08:35:37;15.48;;;10.25;;
79728;SDS011;69218;52.132;5.418;2023-05-07T08:38:03;13.82;;;8.93;;
79728;SDS011;69218;52.132;5.418;2023-05-07T08:40:30;17.02;;;10.93;;
79728;SDS011;69218;52.132;5.418;2023-05-07T08:43:02;15.90;;;10.02;;
79728;SDS011;69218;52.132;5.418;2023-05-07T08:45:31;15.77;;;10.10;;
79728;SDS011;69218;52.132;5.418;2023-05-07T08:48:00;15.95;;;10.65;;
79728;SDS011;69218;52.132;5.418;2023-05-07T08:50:29;17.90;;;10.80;;
79728;SDS011;69218;52.132;5.418;2023-05-07T08:52:56;16.63;;;10.30;;
79728;SDS011;69218;52.132;5.418;2023-05-07T08:55:24;16.70;;;11.00;;
79728;SDS011;69218;52.132;5.418;2023-05-07T08:57:51;16.10;;;10.35;;
79728;SDS011;69218;52.132;5.418;2023-05-07T09:00:19;16.08;;;10.27;;
79728;SDS011;69218;52.132;5.418;2023-05-07T09:02:45;14.35;;;9.57;;
79728;SDS011;69218;52.132;5.418;2023-05-07T09:05:12;16.73;;;10.82;;
79728;SDS011;69218;52.132;5.418;2023-05-07T09:07:39;17.17;;;10.95;;
79728;SDS011;69218;52.132;5.418;2023-05-07T09:10:06;15.70;;;10.45;;
79728;SDS011;69218;52.132;5.418;2023-05-07T09:12:33;17.58;;;11.02;;
79728;SDS011;69218;52.132;5.418;2023-05-07T09:15:01;17.13;;;11.25;;
79728;SDS011;69218;52.132;5.418;2023-05-07T09:17:28;16.40;;;11.35;;
79728;SDS011;69218;52.132;5.418;2023-05-07T09:19:55;16.75;;;11.00;;
79728;SDS011;69218;52.132;5.418;2023-05-07T09:22:22;15.25;;;11.02;;
79728;SDS011;69218;52.132;5.418;2023-05-07T09:24:49;18.17;;;11.20;;
79728;SDS011;69218;52.132;5.418;2023-05-07T09:27:17;17.67;;;11.07;;
79728;SDS011;69218;52.132;5.418;2023-05-07T09:29:44;17.02;;;10.40;;
79728;SDS011;69218;52.132;5.418;2023-05-07T09:32:11;16.73;;;10.75;;
79728;SDS011;69218;52.132;5.418;2023-05-07T09:34:37;17.75;;;10.65;;
79728;SDS011;69218;52.132;5.418;2023-05-07T09:37:04;14.30;;;9.80;;
79728;SDS011;69218;52.132;5.418;2023-05-07T09:39:41;16.13;;;9.63;;
79728;SDS011;69218;52.132;5.418;2023-05-07T09:42:09;13.10;;;8.88;;
79728;SDS011;69218;52.132;5.418;2023-05-07T09:44:37;18.80;;;9.98;;
79728;SDS011;69218;52.132;5.418;2023-05-07T09:47:05;14.65;;;9.55;;
79728;SDS011;69218;52.132;5.418;2023-05-07T09:49:36;15.48;;;9.60;;
79728;SDS011;69218;52.132;5.418;2023-05-07T09:52:04;12.88;;;8.70;;
79728;SDS011;69218;52.132;5.418;2023-05-07T09:54:32;14.55;;;9.13;;
79728;SDS011;69218;52.132;5.418;2023-05-07T09:57:01;14.43;;;9.25;;
79728;SDS011;69218;52.132;5.418;2023-05-07T09:59:29;14.90;;;9.65;;
79728;SDS011;69218;52.132;5.418;2023-05-07T10:01:58;13.40;;;9.52;;
79728;SDS011;69218;52.132;5.418;2023-05-07T10:04:30;16.10;;;9.23;;
79728;SDS011;69218;52.132;5.418;2023-05-07T10:06:58;15.25;;;9.38;;
79728;SDS011;69218;52.132;5.418;2023-05-07T10:09:25;16.52;;;9.98;;
79728;SDS011;69218;52.132;5.418;2023-05-07T10:11:52;16.17;;;10.73;;
79728;SDS011;69218;52.132;5.418;2023-05-07T10:14:20;16.30;;;10.25;;
79728;SDS011;69218;52.132;5.418;2023-05-07T10:16:47;14.68;;;9.85;;
79728;SDS011;69218;52.132;5.418;2023-05-07T10:19:14;14.90;;;9.13;;
79728;SDS011;69218;52.132;5.418;2023-05-07T10:21:44;20.75;;;11.43;;
79728;SDS011;69218;52.132;5.418;2023-05-07T10:24:27;15.90;;;9.95;;
79728;SDS011;69218;52.132;5.418;2023-05-07T10:26:58;16.73;;;10.38;;
79728;SDS011;69218;52.132;5.418;2023-05-07T10:34:42;17.80;;;9.85;;
79728;SDS011;69218;52.132;5.418;2023-05-07T10:37:11;15.82;;;10.27;;
79728;SDS011;69218;52.132;5.418;2023-05-07T10:39:39;18.88;;;10.48;;
79728;SDS011;69218;52.132;5.418;2023-05-07T10:42:07;15.30;;;10.50;;
79728;SDS011;69218;52.132;5.418;2023-05-07T10:44:34;16.00;;;10.50;;
79728;SDS011;69218;52.132;5.418;2023-05-07T10:54:43;17.33;;;9.90;;
79728;SDS011;69218;52.132;5.418;2023-05-07T10:59:59;16.45;;;10.48;;
79728;SDS011;69218;52.132;5.418;2023-05-07T11:05:27;17.10;;;10.45;;
79728;SDS011;69218;52.132;5.418;2023-05-07T11:07:56;16.20;;;9.57;;
79728;SDS011;69218;52.132;5.418;2023-05-07T11:10:23;15.50;;;10.38;;
79728;SDS011;69218;52.132;5.418;2023-05-07T11:13:09;17.77;;;10.55;;
79728;SDS011;69218;52.132;5.418;2023-05-07T11:15:39;15.70;;;9.95;;
79728;SDS011;69218;52.132;5.418;2023-05-07T11:18:09;16.85;;;10.57;;
79728;SDS011;69218;52.132;5.418;2023-05-07T11:20:46;16.70;;;10.65;;
79728;SDS011;69218;52.132;5.418;2023-05-07T11:26:05;17.70;;;10.45;;
79728;SDS011;69218;52.132;5.418;2023-05-07T11:31:06;16.38;;;10.00;;
79728;SDS011;69218;52.132;5.418;2023-05-07T11:33:33;17.42;;;10.63;;
79728;SDS011;69218;52.132;5.418;2023-05-07T11:36:04;15.60;;;10.32;;
79728;SDS011;69218;52.132;5.418;2023-05-07T11:38:34;15.93;;;9.80;;
79728;SDS011;69218;52.132;5.418;2023-05-07T11:41:02;16.38;;;11.10;;
79728;SDS011;69218;52.132;5.418;2023-05-07T11:43:31;16.23;;;10.70;;
79728;SDS011;69218;52.132;5.418;2023-05-07T11:46:09;17.00;;;11.23;;
79728;SDS011;69218;52.132;5.418;2023-05-07T11:48:36;19.88;;;11.80;;
79728;SDS011;69218;52.132;5.418;2023-05-07T11:51:04;16.00;;;10.45;;
79728;SDS011;69218;52.132;5.418;2023-05-07T11:56:08;17.52;;;11.38;;
79728;SDS011;69218;52.132;5.418;2023-05-07T11:58:36;18.42;;;11.52;;
79728;SDS011;69218;52.132;5.418;2023-05-07T12:01:03;18.27;;;11.63;;
79728;SDS011;69218;52.132;5.418;2023-05-07T12:03:30;17.58;;;11.07;;
79728;SDS011;69218;52.132;5.418;2023-05-07T12:06:01;16.13;;;11.07;;
79728;SDS011;69218;52.132;5.418;2023-05-07T12:08:27;20.17;;;11.88;;
79728;SDS011;69218;52.132;5.418;2023-05-07T12:10:54;16.90;;;11.85;;
79728;SDS011;69218;52.132;5.418;2023-05-07T12:13:22;15.98;;;11.50;;
79728;SDS011;69218;52.132;5.418;2023-05-07T12:15:53;15.50;;;11.15;;
79728;SDS011;69218;52.132;5.418;2023-05-07T12:18:21;18.90;;;12.18;;
79728;SDS011;69218;52.132;5.418;2023-05-07T12:20:49;15.15;;;11.00;;
79728;SDS011;69218;52.132;5.418;2023-05-07T12:23:16;16.95;;;10.68;;
79728;SDS011;69218;52.132;5.418;2023-05-07T12:25:43;18.27;;;11.50;;
79728;SDS011;69218;52.132;5.418;2023-05-07T12:28:13;17.10;;;10.60;;
79728;SDS011;69218;52.132;5.418;2023-05-07T12:30:45;16.83;;;11.23;;
79728;SDS011;69218;52.132;5.418;2023-05-07T12:33:17;16.98;;;11.32;;
79728;SDS011;69218;52.132;5.418;2023-05-07T12:35:45;16.90;;;10.55;;
79728;SDS011;69218;52.132;5.418;2023-05-07T12:38:14;16.15;;;11.18;;
79728;SDS011;69218;52.132;5.418;2023-05-07T12:40:48;14.43;;;10.57;;
79728;SDS011;69218;52.132;5.418;2023-05-07T12:43:20;15.13;;;10.95;;
79728;SDS011;69218;52.132;5.418;2023-05-07T12:45:52;14.95;;;10.98;;
79728;SDS011;69218;52.132;5.418;2023-05-07T12:48:21;13.15;;;9.70;;
79728;SDS011;69218;52.132;5.418;2023-05-07T12:50:49;13.40;;;9.65;;
79728;SDS011;69218;52.132;5.418;2023-05-07T12:53:26;15.13;;;10.52;;
79728;SDS011;69218;52.132;5.418;2023-05-07T12:55:54;12.48;;;8.93;;
79728;SDS011;69218;52.132;5.418;2023-05-07T12:58:29;12.27;;;8.85;;
79728;SDS011;69218;52.132;5.418;2023-05-07T13:00:59;11.13;;;7.70;;
79728;SDS011;69218;52.132;5.418;2023-05-07T13:03:31;10.98;;;7.75;;
79728;SDS011;69218;52.132;5.418;2023-05-07T13:06:00;14.18;;;7.78;;
79728;SDS011;69218;52.132;5.418;2023-05-07T13:08:32;10.77;;;6.60;;
79728;SDS011;69218;52.132;5.418;2023-05-07T13:11:04;10.77;;;7.38;;
79728;SDS011;69218;52.132;5.418;2023-05-07T13:13:31;13.30;;;8.82;;
79728;SDS011;69218;52.132;5.418;2023-05-07T13:15:58;11.75;;;8.82;;
79728;SDS011;69218;52.132;5.418;2023-05-07T13:18:26;10.15;;;6.38;;
79728;SDS011;69218;52.132;5.418;2023-05-07T13:20:53;11.02;;;7.45;;
79728;SDS011;69218;52.132;5.418;2023-05-07T13:23:20;8.23;;;5.43;;
79728;SDS011;69218;52.132;5.418;2023-05-07T13:25:47;10.60;;;7.25;;
79728;SDS011;69218;52.132;5.418;2023-05-07T13:28:14;11.40;;;7.68;;
79728;SDS011;69218;52.132;5.418;2023-05-07T13:30:41;10.55;;;7.20;;
79728;SDS011;69218;52.132;5.418;2023-05-07T13:33:08;11.65;;;7.68;;
79728;SDS011;69218;52.132;5.418;2023-05-07T13:35:35;11.90;;;7.25;;
79728;SDS011;69218;52.132;5.418;2023-05-07T13:38:02;14.63;;;9.02;;
79728;SDS011;69218;52.132;5.418;2023-05-07T13:40:28;11.70;;;9.13;;
79728;SDS011;69218;52.132;5.418;2023-05-07T13:42:56;11.65;;;8.43;;
79728;SDS011;69218;52.132;5.418;2023-05-07T13:45:24;14.02;;;9.57;;
79728;SDS011;69218;52.132;5.418;2023-05-07T13:47:52;12.50;;;8.55;;
79728;SDS011;69218;52.132;5.418;2023-05-07T13:50:18;13.68;;;9.48;;
79728;SDS011;69218;52.132;5.418;2023-05-07T13:52:45;13.80;;;10.13;;
79728;SDS011;69218;52.132;5.418;2023-05-07T13:55:20;13.48;;;10.02;;
79728;SDS011;69218;52.132;5.418;2023-05-07T13:57:47;15.38;;;10.25;;
79728;SDS011;69218;52.132;5.418;2023-05-07T14:00:21;14.40;;;10.20;;
79728;SDS011;69218;52.132;5.418;2023-05-07T14:02:47;15.57;;;9.00;;
79728;SDS011;69218;52.132;5.418;2023-05-07T14:05:14;15.40;;;9.98;;
79728;SDS011;69218;52.132;5.418;2023-05-07T14:07:41;13.50;;;9.60;;
79728;SDS011;69218;52.132;5.418;2023-05-07T14:10:07;14.82;;;9.35;;
79728;SDS011;69218;52.132;5.418;2023-05-07T14:12:34;12.07;;;8.90;;
79728;SDS011;69218;52.132;5.418;2023-05-07T14:15:01;12.98;;;8.80;;
79728;SDS011;69218;52.132;5.418;2023-05-07T14:17:27;12.18;;;8.15;;
79728;SDS011;69218;52.132;5.418;2023-05-07T14:19:54;14.30;;;9.02;;
79728;SDS011;69218;52.132;5.418;2023-05-07T14:22:21;12.75;;;8.65;;
79728;SDS011;69218;52.132;5.418;2023-05-07T14:24:49;12.93;;;9.40;;
79728;SDS011;69218;52.132;5.418;2023-05-07T14:27:31;13.27;;;9.52;;
79728;SDS011;69218;52.132;5.418;2023-05-07T14:29:57;13.25;;;9.77;;
79728;SDS011;69218;52.132;5.418;2023-05-07T14:32:24;13.82;;;9.32;;
79728;SDS011;69218;52.132;5.418;2023-05-07T14:34:51;12.50;;;8.73;;
79728;SDS011;69218;52.132;5.418;2023-05-07T14:37:17;13.52;;;9.20;;
79728;SDS011;69218;52.132;5.418;2023-05-07T14:42:15;15.65;;;9.10;;
79728;SDS011;69218;52.132;5.418;2023-05-07T14:44:42;14.52;;;9.27;;
79728;SDS011;69218;52.132;5.418;2023-05-07T14:47:09;12.85;;;8.52;;
79728;SDS011;69218;52.132;5.418;2023-05-07T14:49:35;13.88;;;8.32;;
79728;SDS011;69218;52.132;5.418;2023-05-07T14:52:02;13.70;;;9.18;;
79728;SDS011;69218;52.132;5.418;2023-05-07T14:54:28;12.13;;;8.23;;
79728;SDS011;69218;52.132;5.418;2023-05-07T14:56:55;12.48;;;8.07;;
79728;SDS011;69218;52.132;5.418;2023-05-07T14:59:22;11.50;;;8.07;;
79728;SDS011;69218;52.132;5.418;2023-05-07T15:01:51;13.30;;;8.05;;
79728;SDS011;69218;52.132;5.418;2023-05-07T15:04:17;11.55;;;8.05;;
79728;SDS011;69218;52.132;5.418;2023-05-07T15:06:44;12.88;;;8.18;;
79728;SDS011;69218;52.132;5.418;2023-05-07T15:09:12;11.00;;;7.82;;
79728;SDS011;69218;52.132;5.418;2023-05-07T15:11:38;13.40;;;8.05;;